Time;durP1;ratioP1;P1;durP2;ratioP2;P2;SDS_P1;SDS_P2;PMS_P1;PMS_P2;Temp;Humidity;BMP_temperature;BMP_pressure;BME280_temperature;BME280_humidity;BME280_pressure;Samples;Min_cycle;Max_cycle;Signal;HPM_P1;HPM_P2
2023/07/25 00:01:13;;;;;;;4.97;2.73;;;;;;;;;;5034025;28;20530;-58
2023/07/25 00:03:40;;;;;;;3.97;3.00;;;;;;;;;;5034133;28;20458;-59
2023/07/25 00:06:07;;;;;;;4.77;3.13;;;;;;;;;;5033336;28;20481;-57
2023/07/25 00:08:35;;;;;;;3.73;3.10;;;;;;;;;;5030744;28;20920;-58
2023/07/25 00:11:02;;;;;;;5.13;3.30;;;;;;;;;;5022445;28;20486;-59
2023/07/25 00:13:29;;;;;;;5.20;2.73;;;;;;;;;;5022020;28;20462;-59
2023/07/25 00:15:58;;;;;;;3.90;2.57;;;;;;;;;;5033342;28;20521;-59
2023/07/25 00:18:25;;;;;;;3.27;2.20;;;;;;;;;;5032485;28;20492;-57
2023/07/25 00:20:52;;;;;;;4.10;2.67;;;;;;;;;;5029679;28;20514;-58
2023/07/25 00:23:20;;;;;;;4.37;2.87;;;;;;;;;;5031130;28;20854;-57
2023/07/25 00:25:47;;;;;;;6.23;3.00;;;;;;;;;;5033097;28;20525;-58
2023/07/25 00:28:14;;;;;;;3.67;2.40;;;;;;;;;;5032733;28;20534;-58
2023/07/25 00:30:41;;;;;;;4.33;3.10;;;;;;;;;;5032685;28;20986;-58
2023/07/25 00:33:10;;;;;;;3.83;2.60;;;;;;;;;;5032466;28;20549;-58
2023/07/25 00:35:37;;;;;;;3.80;2.70;;;;;;;;;;5032875;28;20465;-57
2023/07/25 00:38:05;;;;;;;3.40;2.13;;;;;;;;;;5032030;28;20478;-57
2023/07/25 00:40:32;;;;;;;4.00;2.43;;;;;;;;;;5032628;28;20452;-58
2023/07/25 00:43:00;;;;;;;3.67;3.07;;;;;;;;;;5032974;28;20528;-58
2023/07/25 00:45:27;;;;;;;3.90;2.93;;;;;;;;;;5032801;28;20454;-57
2023/07/25 00:47:54;;;;;;;3.77;2.93;;;;;;;;;;5032947;28;20443;-58
2023/07/25 00:50:23;;;;;;;3.33;2.70;;;;;;;;;;5031885;28;20446;-58
2023/07/25 00:52:50;;;;;;;3.47;2.67;;;;;;;;;;5032237;28;20544;-58
2023/07/25 00:55:17;;;;;;;3.57;2.50;;;;;;;;;;5032639;28;20817;-58
2023/07/25 00:57:45;;;;;;;3.77;2.43;;;;;;;;;;5032414;28;20534;-58
2023/07/25 01:00:13;;;;;;;4.80;3.27;;;;;;;;;;5032478;28;20529;-58
2023/07/25 01:02:40;;;;;;;4.87;3.00;;;;;;;;;;5032652;28;20525;-58
2023/07/25 01:05:07;;;;;;;4.50;3.00;;;;;;;;;;5032987;28;20544;-59
2023/07/25 01:07:38;;;;;;;3.77;2.77;;;;;;;;;;5032364;28;20485;-59
2023/07/25 01:10:06;;;;;;;3.70;2.83;;;;;;;;;;5031657;28;20453;-58
2023/07/25 01:12:33;;;;;;;4.90;2.80;;;;;;;;;;5028850;28;20478;-57
2023/07/25 01:15:00;;;;;;;3.40;2.90;;;;;;;;;;5032222;28;20525;-57
2023/07/25 01:17:28;;;;;;;3.33;2.73;;;;;;;;;;5032079;28;20473;-58
2023/07/25 01:19:55;;;;;;;3.33;2.70;;;;;;;;;;5032512;28;20466;-58
2023/07/25 01:22:23;;;;;;;4.57;3.43;;;;;;;;;;5031883;28;20434;-58
2023/07/25 01:24:55;;;;;;;3.60;2.90;;;;;;;;;;5032274;28;20545;-58
2023/07/25 01:27:22;;;;;;;3.63;2.70;;;;;;;;;;5031822;28;20533;-57
2023/07/25 01:29:49;;;;;;;3.93;2.90;;;;;;;;;;5032177;28;21065;-57
2023/07/25 01:32:17;;;;;;;3.90;3.20;;;;;;;;;;5031645;28;20510;-57
2023/07/25 01:34:44;;;;;;;5.13;3.70;;;;;;;;;;5022315;28;20466;-59
2023/07/25 01:37:12;;;;;;;4.30;2.70;;;;;;;;;;5031152;28;20477;-58
2023/07/25 01:39:39;;;;;;;3.47;2.83;;;;;;;;;;5030762;28;20538;-58
2023/07/25 01:42:08;;;;;;;5.10;2.67;;;;;;;;;;5031609;28;20819;-58
2023/07/25 01:44:35;;;;;;;5.03;2.80;;;;;;;;;;5031182;28;20498;-58
2023/07/25 01:47:03;;;;;;;3.50;2.80;;;;;;;;;;5031716;28;20449;-59
2023/07/25 01:49:30;;;;;;;3.73;3.00;;;;;;;;;;5031574;28;20470;-56
2023/07/25 01:51:57;;;;;;;7.20;3.83;;;;;;;;;;5031224;28;21028;-57
2023/07/25 01:54:24;;;;;;;5.93;3.50;;;;;;;;;;5031107;28;20839;-58
2023/07/25 01:56:52;;;;;;;5.93;3.30;;;;;;;;;;5031386;28;20474;-58
2023/07/25 01:59:21;;;;;;;4.50;3.40;;;;;;;;;;5031047;28;20481;-58
2023/07/25 02:01:48;;;;;;;5.07;3.47;;;;;;;;;;5030262;28;20528;-58
2023/07/25 02:04:16;;;;;;;3.47;2.97;;;;;;;;;;5031002;28;20509;-59
2023/07/25 02:06:43;;;;;;;7.07;3.73;;;;;;;;;;5031555;28;20512;-58
2023/07/25 02:09:10;;;;;;;4.03;2.97;;;;;;;;;;5030178;28;20525;-57
2023/07/25 02:11:37;;;;;;;5.00;3.63;;;;;;;;;;5031090;28;20565;-57
2023/07/25 02:14:04;;;;;;;4.20;3.63;;;;;;;;;;5030839;28;20542;-58
2023/07/25 02:16:36;;;;;;;5.30;3.53;;;;;;;;;;5031350;28;20529;-58
2023/07/25 02:19:03;;;;;;;4.90;3.83;;;;;;;;;;5030202;28;20524;-57
2023/07/25 02:21:31;;;;;;;3.63;3.27;;;;;;;;;;5031102;28;20474;-57
2023/07/25 02:23:58;;;;;;;4.60;4.00;;;;;;;;;;5031173;28;20525;-58
2023/07/25 02:26:25;;;;;;;6.17;4.30;;;;;;;;;;5031433;28;20522;-58
2023/07/25 02:28:52;;;;;;;3.93;3.10;;;;;;;;;;5031313;28;20478;-58
2023/07/25 02:31:20;;;;;;;4.50;2.70;;;;;;;;;;5031628;28;20529;-57
2023/07/25 02:33:48;;;;;;;3.53;2.13;;;;;;;;;;5031816;28;20520;-57
2023/07/25 02:36:16;;;;;;;3.00;2.50;;;;;;;;;;5031290;28;20474;-55
2023/07/25 02:38:43;;;;;;;3.60;2.63;;;;;;;;;;5031154;28;20438;-58
2023/07/25 02:41:10;;;;;;;3.97;2.23;;;;;;;;;;5031908;28;20532;-56
2023/07/25 02:43:37;;;;;;;4.73;2.37;;;;;;;;;;5032108;28;20493;-58
2023/07/25 02:46:05;;;;;;;2.67;1.87;;;;;;;;;;5032520;28;20525;-58
2023/07/25 02:48:32;;;;;;;3.00;1.80;;;;;;;;;;5031653;28;20786;-56
2023/07/25 02:51:00;;;;;;;4.37;2.30;;;;;;;;;;5031169;28;20447;-57
2023/07/25 02:53:28;;;;;;;2.83;1.63;;;;;;;;;;5030638;28;20651;-57
2023/07/25 02:55:55;;;;;;;2.83;2.00;;;;;;;;;;5031590;28;21020;-57
2023/07/25 02:58:23;;;;;;;4.33;2.43;;;;;;;;;;5031526;28;20446;-57
2023/07/25 03:00:50;;;;;;;4.60;2.80;;;;;;;;;;5031345;28;20943;-58
2023/07/25 03:03:17;;;;;;;3.83;2.23;;;;;;;;;;5031761;28;20970;-58
2023/07/25 03:05:44;;;;;;;2.87;1.77;;;;;;;;;;5031625;28;20544;-57
2023/07/25 03:08:13;;;;;;;2.93;2.27;;;;;;;;;;5031860;28;20830;-56
2023/07/25 03:10:40;;;;;;;2.90;1.83;;;;;;;;;;5030817;28;20521;-57
2023/07/25 03:13:07;;;;;;;2.60;1.50;;;;;;;;;;5029836;28;20915;-56
2023/07/25 03:15:35;;;;;;;2.73;1.60;;;;;;;;;;5031550;28;20482;-57
2023/07/25 03:18:02;;;;;;;4.57;2.23;;;;;;;;;;5030869;28;20529;-58
2023/07/25 03:20:29;;;;;;;4.93;2.93;;;;;;;;;;5029931;28;21043;-57
2023/07/25 03:22:56;;;;;;;3.50;2.20;;;;;;;;;;5029149;28;20526;-57
2023/07/25 03:25:25;;;;;;;3.43;2.00;;;;;;;;;;5029489;28;20470;-57
2023/07/25 03:27:52;;;;;;;3.10;2.00;;;;;;;;;;5029350;28;20549;-58
2023/07/25 03:30:19;;;;;;;4.13;2.10;;;;;;;;;;5028645;28;21116;-57
2023/07/25 03:32:47;;;;;;;3.80;2.17;;;;;;;;;;5029163;28;20868;-58
2023/07/25 03:35:14;;;;;;;3.07;2.20;;;;;;;;;;5029833;28;20516;-57
2023/07/25 03:37:41;;;;;;;4.57;2.50;;;;;;;;;;5030176;28;20485;-58
2023/07/25 03:40:09;;;;;;;3.80;2.13;;;;;;;;;;5029219;28;20481;-57
2023/07/25 03:42:37;;;;;;;4.60;2.30;;;;;;;;;;5029396;28;20517;-59
2023/07/25 03:45:05;;;;;;;3.00;2.23;;;;;;;;;;5029723;28;20532;-58
2023/07/25 03:47:32;;;;;;;3.77;2.07;;;;;;;;;;5029566;28;20530;-58
2023/07/25 03:49:59;;;;;;;4.30;2.27;;;;;;;;;;5030027;28;20470;-57
2023/07/25 03:52:27;;;;;;;3.90;2.50;;;;;;;;;;5029028;28;20466;-58
2023/07/25 03:54:54;;;;;;;3.67;2.00;;;;;;;;;;5028989;28;20472;-58
2023/07/25 03:57:21;;;;;;;3.70;1.90;;;;;;;;;;5029425;28;20469;-58
2023/07/25 03:59:50;;;;;;;3.80;2.33;;;;;;;;;;5028783;28;20549;-58
2023/07/25 04:02:17;;;;;;;3.47;2.10;;;;;;;;;;5029039;28;20912;-57
2023/07/25 04:04:44;;;;;;;3.70;2.30;;;;;;;;;;5032344;28;20866;-58
2023/07/25 04:07:12;;;;;;;4.00;2.30;;;;;;;;;;5032167;28;20504;-58
2023/07/25 04:09:39;;;;;;;4.37;2.10;;;;;;;;;;5033508;28;20537;-58
2023/07/25 04:12:06;;;;;;;2.77;1.93;;;;;;;;;;5033271;28;20493;-58
2023/07/25 04:14:34;;;;;;;2.97;1.90;;;;;;;;;;5033523;28;20540;-58
2023/07/25 04:17:02;;;;;;;3.07;1.93;;;;;;;;;;5033476;28;20521;-57
2023/07/25 04:19:29;;;;;;;3.10;1.97;;;;;;;;;;5032311;28;20474;-57
2023/07/25 04:21:57;;;;;;;2.40;1.70;;;;;;;;;;5033160;28;20954;-57
2023/07/25 04:24:24;;;;;;;3.57;2.13;;;;;;;;;;5033684;28;20548;-58
2023/07/25 04:26:51;;;;;;;2.90;1.77;;;;;;;;;;5033357;28;20529;-57
2023/07/25 04:29:18;;;;;;;2.77;1.60;;;;;;;;;;5033064;28;20524;-57
2023/07/25 04:31:45;;;;;;;2.77;1.47;;;;;;;;;;5033346;28;20470;-58
2023/07/25 04:34:14;;;;;;;3.40;2.00;;;;;;;;;;5033132;28;20561;-58
2023/07/25 04:36:41;;;;;;;3.13;2.30;;;;;;;;;;5014253;28;20988;-57
2023/07/25 04:39:09;;;;;;;4.27;2.80;;;;;;;;;;5022750;28;20478;-57
2023/07/25 04:41:36;;;;;;;4.23;2.60;;;;;;;;;;5033214;28;20446;-58
2023/07/25 04:44:03;;;;;;;2.63;1.90;;;;;;;;;;5033856;28;20549;-58
2023/07/25 04:46:31;;;;;;;4.37;2.17;;;;;;;;;;5034018;28;20533;-58
2023/07/25 04:48:58;;;;;;;3.83;2.13;;;;;;;;;;5033714;28;20496;-57
2023/07/25 04:51:27;;;;;;;3.70;1.63;;;;;;;;;;5032585;28;20920;-59
2023/07/25 04:53:54;;;;;;;2.83;2.07;;;;;;;;;;5033188;28;20561;-58
2023/07/25 04:56:21;;;;;;;2.70;1.50;;;;;;;;;;5033728;28;20537;-58
2023/07/25 04:58:48;;;;;;;5.77;2.23;;;;;;;;;;5031341;28;20438;-56
2023/07/25 05:01:15;;;;;;;4.40;2.20;;;;;;;;;;5031250;28;20521;-57
2023/07/25 05:03:43;;;;;;;3.60;1.97;;;;;;;;;;5031163;28;20481;-57
2023/07/25 05:06:11;;;;;;;2.90;1.50;;;;;;;;;;5032483;28;20529;-57
2023/07/25 05:08:39;;;;;;;2.30;1.40;;;;;;;;;;5032091;28;20442;-57
2023/07/25 05:11:07;;;;;;;3.40;1.53;;;;;;;;;;5031487;28;20481;-57
2023/07/25 05:13:34;;;;;;;3.63;2.27;;;;;;;;;;5032825;28;20508;-58
2023/07/25 05:16:01;;;;;;;6.03;2.80;;;;;;;;;;5032406;28;20582;-57
2023/07/25 05:18:28;;;;;;;4.97;2.80;;;;;;;;;;5031879;28;21009;-57
2023/07/25 05:20:56;;;;;;;3.83;2.20;;;;;;;;;;5031981;28;20533;-57
2023/07/25 05:23:23;;;;;;;3.53;1.87;;;;;;;;;;5030843;28;20486;-57
2023/07/25 05:25:52;;;;;;;2.10;1.33;;;;;;;;;;5032002;28;20450;-59
2023/07/25 05:28:19;;;;;;;3.53;1.80;;;;;;;;;;5032069;28;20466;-57
2023/07/25 05:30:47;;;;;;;2.90;1.47;;;;;;;;;;5029048;28;20573;-58
2023/07/25 05:33:14;;;;;;;3.10;1.37;;;;;;;;;;5029876;28;20561;-57
2023/07/25 05:35:41;;;;;;;3.20;1.00;;;;;;;;;;5030345;28;20874;-57
2023/07/25 05:38:08;;;;;;;1.97;1.00;;;;;;;;;;5031010;28;20482;-58
2023/07/25 05:40:36;;;;;;;2.13;1.33;;;;;;;;;;5031917;28;20534;-58
2023/07/25 05:43:05;;;;;;;3.30;1.53;;;;;;;;;;5032048;28;20462;-59
2023/07/25 05:45:32;;;;;;;3.47;1.27;;;;;;;;;;5031036;28;20496;-58
2023/07/25 05:47:59;;;;;;;2.73;1.50;;;;;;;;;;5031325;28;20525;-57
2023/07/25 05:50:27;;;;;;;3.60;1.73;;;;;;;;;;5031506;28;20542;-58
2023/07/25 05:52:54;;;;;;;4.80;2.23;;;;;;;;;;5030753;28;20557;-56
2023/07/25 05:55:21;;;;;;;3.97;1.90;;;;;;;;;;5030211;28;20526;-58
2023/07/25 05:57:48;;;;;;;4.30;2.50;;;;;;;;;;5029441;28;20522;-57
2023/07/25 06:00:17;;;;;;;5.00;2.07;;;;;;;;;;5030552;28;20525;-57
2023/07/25 06:02:44;;;;;;;5.40;2.53;;;;;;;;;;5029891;28;20462;-58
2023/07/25 06:05:12;;;;;;;3.00;1.87;;;;;;;;;;5057624;23;20565;-90
2023/07/25 06:07:39;;;;;;;3.50;2.30;;;;;;;;;;5033058;28;20922;-91
2023/07/25 06:10:07;;;;;;;2.87;1.50;;;;;;;;;;5033145;28;20481;-90
2023/07/25 06:12:34;;;;;;;3.13;1.97;;;;;;;;;;5032386;28;20458;-90
2023/07/25 06:15:02;;;;;;;2.10;1.20;;;;;;;;;;5032226;28;20976;-90
2023/07/25 06:19:59;;;;;;;2.10;1.00;;;;;;;;;;5028183;28;20467;-55
2023/07/25 06:22:26;;;;;;;2.10;1.17;;;;;;;;;;5030303;28;20474;-55
2023/07/25 06:24:54;;;;;;;2.40;1.20;;;;;;;;;;5030154;28;20545;-55
2023/07/25 06:27:21;;;;;;;2.10;1.30;;;;;;;;;;5029992;28;20924;-56
2023/07/25 06:29:48;;;;;;;2.87;1.53;;;;;;;;;;5029759;28;20466;-55
2023/07/25 06:32:15;;;;;;;2.93;1.80;;;;;;;;;;5086154;23;20482;-57
2023/07/25 06:34:42;;;;;;;5.70;1.70;;;;;;;;;;5009689;28;20558;-57
2023/07/25 06:37:11;;;;;;;3.40;1.73;;;;;;;;;;5011114;28;20853;-58
2023/07/25 06:39:38;;;;;;;2.53;1.50;;;;;;;;;;5011644;28;20467;-55
2023/07/25 06:42:06;;;;;;;2.97;1.50;;;;;;;;;;5012050;28;20470;-57
2023/07/25 06:44:33;;;;;;;2.63;1.60;;;;;;;;;;5010892;28;20494;-57
2023/07/25 06:47:00;;;;;;;2.47;1.30;;;;;;;;;;5007105;28;21015;-58
2023/07/25 06:49:27;;;;;;;2.43;1.30;;;;;;;;;;5006770;28;20530;-55
2023/07/25 06:51:55;;;;;;;2.93;1.40;;;;;;;;;;4998909;28;20565;-57
2023/07/25 06:54:24;;;;;;;3.83;1.57;;;;;;;;;;5008766;28;20497;-57
2023/07/25 06:56:51;;;;;;;2.80;1.60;;;;;;;;;;5009387;28;20478;-57
2023/07/25 06:59:18;;;;;;;4.27;1.20;;;;;;;;;;5010546;28;20722;-57
2023/07/25 07:01:46;;;;;;;3.20;1.67;;;;;;;;;;5009655;28;20982;-57
2023/07/25 07:04:13;;;;;;;2.50;1.57;;;;;;;;;;5010504;28;20467;-59
2023/07/25 07:06:41;;;;;;;3.07;1.50;;;;;;;;;;5010052;28;20525;-56
2023/07/25 07:09:08;;;;;;;4.90;1.57;;;;;;;;;;5005968;28;20490;-56
2023/07/25 07:11:36;;;;;;;2.20;1.33;;;;;;;;;;5010048;28;20576;-57
2023/07/25 07:14:04;;;;;;;3.20;1.70;;;;;;;;;;5010052;28;20510;-57
2023/07/25 07:16:31;;;;;;;2.80;1.40;;;;;;;;;;5000761;28;20872;-58
2023/07/25 07:18:58;;;;;;;2.50;1.40;;;;;;;;;;5010021;28;20486;-57
2023/07/25 07:21:25;;;;;;;2.50;1.57;;;;;;;;;;5010017;28;20491;-58
2023/07/25 07:23:52;;;;;;;2.00;1.40;;;;;;;;;;5010067;28;20530;-57
2023/07/25 07:26:20;;;;;;;2.03;1.13;;;;;;;;;;4999333;28;20919;-58
2023/07/25 07:28:48;;;;;;;3.33;1.60;;;;;;;;;;5010129;28;20438;-57
2023/07/25 07:31:21;;;;;;;2.63;1.60;;;;;;;;;;4999683;28;20554;-58
2023/07/25 07:33:49;;;;;;;2.40;1.30;;;;;;;;;;5003783;28;20573;-57
2023/07/25 07:36:16;;;;;;;2.30;1.37;;;;;;;;;;5006320;28;20550;-59
2023/07/25 07:38:43;;;;;;;3.10;1.20;;;;;;;;;;5002383;28;20475;-58
2023/07/25 07:41:10;;;;;;;3.93;1.97;;;;;;;;;;5013544;28;20509;-59
2023/07/25 07:43:38;;;;;;;2.77;1.43;;;;;;;;;;5012105;28;20474;-58
2023/07/25 07:46:06;;;;;;;3.03;1.30;;;;;;;;;;5013659;28;20470;-58
2023/07/25 07:48:33;;;;;;;2.50;1.40;;;;;;;;;;5008374;28;20451;-58
2023/07/25 07:51:04;;;;;;;2.60;1.27;;;;;;;;;;5012510;28;20553;-57
2023/07/25 07:53:31;;;;;;;2.97;1.13;;;;;;;;;;5012928;28;21049;-57
2023/07/25 07:55:58;;;;;;;4.30;1.40;;;;;;;;;;5014054;28;20558;-57
2023/07/25 07:58:25;;;;;;;2.17;1.30;;;;;;;;;;5011618;28;20792;-55
2023/07/25 08:00:52;;;;;;;2.93;1.70;;;;;;;;;;5013531;28;20870;-56
2023/07/25 08:03:21;;;;;;;3.20;1.40;;;;;;;;;;5013688;28;20542;-58
2023/07/25 08:05:48;;;;;;;2.43;1.17;;;;;;;;;;5013522;28;20545;-57
2023/07/25 08:08:16;;;;;;;2.57;1.20;;;;;;;;;;5012889;28;20823;-58
2023/07/25 08:10:43;;;;;;;3.30;1.50;;;;;;;;;;5017327;28;20658;-59
2023/07/25 08:13:10;;;;;;;3.50;1.10;;;;;;;;;;5017031;28;20534;-55
2023/07/25 08:15:37;;;;;;;2.53;1.17;;;;;;;;;;5013793;28;20946;-57
2023/07/25 08:18:04;;;;;;;2.27;1.00;;;;;;;;;;5013475;28;20537;-58
2023/07/25 08:20:33;;;;;;;2.43;1.43;;;;;;;;;;5008201;28;20519;-59
2023/07/25 08:23:00;;;;;;;4.40;1.87;;;;;;;;;;5004406;28;20570;-57
2023/07/25 08:25:27;;;;;;;2.97;2.00;;;;;;;;;;5000027;28;20475;-57
2023/07/25 08:27:55;;;;;;;3.10;1.70;;;;;;;;;;5002272;28;20475;-57
2023/07/25 08:30:22;;;;;;;2.97;1.63;;;;;;;;;;5012523;28;20486;-58
2023/07/25 08:32:49;;;;;;;2.50;1.50;;;;;;;;;;5012929;28;20491;-57
2023/07/25 08:35:17;;;;;;;2.43;1.30;;;;;;;;;;5012719;28;20906;-57
2023/07/25 08:37:45;;;;;;;2.80;1.67;;;;;;;;;;5012638;28;20477;-58
2023/07/25 08:40:13;;;;;;;2.57;1.73;;;;;;;;;;5012487;28;20478;-60
2023/07/25 08:42:42;;;;;;;5.50;1.70;;;;;;;;;;5014049;28;20550;-58
2023/07/25 08:45:10;;;;;;;3.80;2.10;;;;;;;;;;5011907;28;20546;-58
2023/07/25 08:47:40;;;;;;;3.93;2.43;;;;;;;;;;5012391;28;20481;-58
2023/07/25 08:50:11;;;;;;;3.27;1.57;;;;;;;;;;5013026;28;20447;-59
2023/07/25 08:52:41;;;;;;;4.30;2.20;;;;;;;;;;5004672;28;21053;-57
2023/07/25 08:55:10;;;;;;;2.63;1.80;;;;;;;;;;5013122;28;20478;-57
2023/07/25 08:57:37;;;;;;;3.47;1.80;;;;;;;;;;5013505;28;20534;-59
2023/07/25 09:00:05;;;;;;;3.20;1.90;;;;;;;;;;5012927;28;20479;-59
2023/07/25 09:02:32;;;;;;;5.30;1.80;;;;;;;;;;5012345;28;20463;-58
2023/07/25 09:04:59;;;;;;;3.10;1.70;;;;;;;;;;5012516;28;20471;-58
2023/07/25 09:07:27;;;;;;;2.90;1.77;;;;;;;;;;5012373;28;20477;-58
2023/07/25 09:09:54;;;;;;;2.80;1.50;;;;;;;;;;5012688;28;20542;-58
2023/07/25 09:12:23;;;;;;;3.30;3.00;;;;;;;;;;5012013;28;20525;-54
2023/07/25 09:14:50;;;;;;;3.47;2.77;;;;;;;;;;5011554;28;20522;-56
2023/07/25 09:17:17;;;;;;;3.13;2.40;;;;;;;;;;5011699;28;20526;-57
2023/07/25 09:19:45;;;;;;;2.83;1.70;;;;;;;;;;5011220;28;20991;-56
2023/07/25 09:22:27;;;;;;;4.00;1.53;;;;;;;;;;5011273;28;20578;-58
2023/07/25 09:24:54;;;;;;;3.07;1.70;;;;;;;;;;5010324;28;21019;-57
2023/07/25 09:27:23;;;;;;;3.60;1.60;;;;;;;;;;5011233;28;21028;-58
2023/07/25 09:29:51;;;;;;;2.83;1.83;;;;;;;;;;5010471;28;20526;-58
2023/07/25 09:32:23;;;;;;;2.87;1.70;;;;;;;;;;5010675;28;20478;-55
2023/07/25 09:34:57;;;;;;;2.50;1.70;;;;;;;;;;5010439;28;20833;-56
2023/07/25 09:37:24;;;;;;;3.50;1.60;;;;;;;;;;5009779;28;20534;-58
2023/07/25 09:39:51;;;;;;;3.50;1.87;;;;;;;;;;5010413;28;20522;-56
2023/07/25 09:42:23;;;;;;;2.80;1.90;;;;;;;;;;5011385;28;20498;-56
2023/07/25 09:44:52;;;;;;;2.60;1.50;;;;;;;;;;5009933;28;20466;-58
2023/07/25 09:47:23;;;;;;;2.27;1.47;;;;;;;;;;5011002;28;20483;-57
2023/07/25 09:49:50;;;;;;;3.00;1.60;;;;;;;;;;5010371;28;20443;-58
2023/07/25 09:52:18;;;;;;;2.57;1.60;;;;;;;;;;5009699;28;20546;-58
2023/07/25 09:54:45;;;;;;;4.10;1.60;;;;;;;;;;5003214;28;20514;-58
2023/07/25 09:57:12;;;;;;;2.87;1.50;;;;;;;;;;5009225;28;20544;-57
2023/07/25 09:59:41;;;;;;;3.57;2.00;;;;;;;;;;5010973;28;20534;-57
2023/07/25 10:02:08;;;;;;;2.80;1.57;;;;;;;;;;5005829;28;20475;-57
2023/07/25 10:04:37;;;;;;;2.27;1.30;;;;;;;;;;5007857;28;20479;-57
2023/07/25 10:07:04;;;;;;;2.43;1.40;;;;;;;;;;5011039;28;20482;-57
2023/07/25 10:09:32;;;;;;;4.20;1.50;;;;;;;;;;5006362;28;20455;-57
2023/07/25 10:12:01;;;;;;;2.20;1.30;;;;;;;;;;5009781;28;20514;-57
2023/07/25 10:14:28;;;;;;;2.30;1.70;;;;;;;;;;5010294;28;21006;-57
2023/07/25 10:16:58;;;;;;;2.80;1.50;;;;;;;;;;5010261;28;20534;-57
2023/07/25 10:19:26;;;;;;;2.50;1.30;;;;;;;;;;5009504;28;20479;-58
2023/07/25 10:21:54;;;;;;;4.27;1.43;;;;;;;;;;5003482;28;20558;-57
2023/07/25 10:24:22;;;;;;;2.50;1.40;;;;;;;;;;5004714;28;20449;-56
2023/07/25 10:26:56;;;;;;;2.40;1.33;;;;;;;;;;5005963;28;20478;-56
2023/07/25 10:29:37;;;;;;;4.13;1.50;;;;;;;;;;5006685;28;20529;-57
2023/07/25 10:32:06;;;;;;;2.67;1.73;;;;;;;;;;5008460;28;20847;-56
2023/07/25 10:34:44;;;;;;;2.73;1.17;;;;;;;;;;5008521;28;20572;-55
2023/07/25 10:37:25;;;;;;;3.00;1.00;;;;;;;;;;5006952;28;20879;-57
2023/07/25 10:40:11;;;;;;;4.00;2.30;;;;;;;;;;5007659;28;20515;-59
2023/07/25 10:42:42;;;;;;;2.57;1.80;;;;;;;;;;5007430;28;20478;-58
2023/07/25 10:45:20;;;;;;;3.20;1.80;;;;;;;;;;5008949;28;20458;-59
2023/07/25 10:47:49;;;;;;;3.20;1.70;;;;;;;;;;5010976;28;20474;-57
2023/07/25 10:50:20;;;;;;;3.10;1.60;;;;;;;;;;5008730;28;20444;-58
2023/07/25 10:52:48;;;;;;;3.07;1.37;;;;;;;;;;5006036;28;20466;-57
2023/07/25 10:55:15;;;;;;;3.50;1.53;;;;;;;;;;5006897;28;20566;-59
2023/07/25 10:57:42;;;;;;;3.60;1.57;;;;;;;;;;5006096;28;20459;-58
2023/07/25 11:00:10;;;;;;;2.57;1.30;;;;;;;;;;5005356;28;20543;-57
2023/07/25 11:02:39;;;;;;;3.37;1.60;;;;;;;;;;5001233;28;20547;-58
2023/07/25 11:05:22;;;;;;;2.87;1.40;;;;;;;;;;4995253;28;20444;-58
2023/07/25 11:07:50;;;;;;;4.27;1.70;;;;;;;;;;4999643;28;20854;-59
2023/07/25 11:10:20;;;;;;;2.57;1.80;;;;;;;;;;5005898;28;20824;-58
2023/07/25 11:12:50;;;;;;;3.13;1.70;;;;;;;;;;5009003;28;20513;-59
2023/07/25 11:15:17;;;;;;;2.67;1.40;;;;;;;;;;5013114;28;21037;-59
2023/07/25 11:17:44;;;;;;;3.13;1.50;;;;;;;;;;5013829;28;20469;-59
2023/07/25 11:20:12;;;;;;;2.67;1.47;;;;;;;;;;5011482;28;20478;-58
2023/07/25 11:22:41;;;;;;;2.97;1.67;;;;;;;;;;4994098;28;20464;-59
2023/07/25 11:25:08;;;;;;;3.03;1.57;;;;;;;;;;5009068;28;20836;-57
2023/07/25 11:27:36;;;;;;;2.40;1.80;;;;;;;;;;5010099;28;20531;-58
2023/07/25 11:30:11;;;;;;;2.10;1.40;;;;;;;;;;5010121;28;20538;-59
2023/07/25 11:32:38;;;;;;;3.00;1.40;;;;;;;;;;5011839;28;20475;-58
2023/07/25 11:35:06;;;;;;;2.53;1.70;;;;;;;;;;5001006;28;20536;-59
2023/07/25 11:37:34;;;;;;;3.20;1.70;;;;;;;;;;5012318;28;20450;-56
2023/07/25 11:40:13;;;;;;;2.37;1.20;;;;;;;;;;5013865;28;20544;-58
2023/07/25 11:42:41;;;;;;;2.30;1.13;;;;;;;;;;5013697;28;20485;-57
2023/07/25 11:45:09;;;;;;;2.83;1.60;;;;;;;;;;5012132;28;20466;-57
2023/07/25 11:47:36;;;;;;;2.50;1.60;;;;;;;;;;5013446;28;20538;-57
2023/07/25 11:50:05;;;;;;;2.20;1.53;;;;;;;;;;5013288;28;20942;-58
2023/07/25 11:52:33;;;;;;;2.40;1.00;;;;;;;;;;5013114;28;20467;-59
2023/07/25 11:55:00;;;;;;;2.03;1.10;;;;;;;;;;5014139;28;20860;-57
2023/07/25 11:57:29;;;;;;;2.10;1.10;;;;;;;;;;5013895;28;20505;-58
2023/07/25 11:59:56;;;;;;;3.40;1.10;;;;;;;;;;5012771;28;20982;-58
2023/07/25 12:02:24;;;;;;;2.37;1.20;;;;;;;;;;5013454;28;20735;-57
2023/07/25 12:04:52;;;;;;;2.33;1.00;;;;;;;;;;5013296;28;20483;-57
2023/07/25 12:07:19;;;;;;;2.30;1.10;;;;;;;;;;5013491;28;20489;-56
2023/07/25 12:09:51;;;;;;;2.63;1.20;;;;;;;;;;5013087;28;20534;-58
2023/07/25 12:12:18;;;;;;;2.20;1.23;;;;;;;;;;5013596;28;20470;-56
2023/07/25 12:14:55;;;;;;;2.77;1.20;;;;;;;;;;5013447;28;20514;-59
2023/07/25 12:17:22;;;;;;;2.10;1.00;;;;;;;;;;5013368;28;20453;-56
2023/07/25 12:19:53;;;;;;;2.00;1.00;;;;;;;;;;5013030;28;20443;-56
2023/07/25 12:22:20;;;;;;;2.63;1.27;;;;;;;;;;5012700;28;20995;-57
2023/07/25 12:24:48;;;;;;;2.30;1.20;;;;;;;;;;5012904;28;20439;-57
2023/07/25 12:27:18;;;;;;;1.97;1.10;;;;;;;;;;5011833;28;20462;-58
2023/07/25 12:29:46;;;;;;;2.00;1.10;;;;;;;;;;5011623;28;20930;-58
2023/07/25 12:32:14;;;;;;;3.23;1.43;;;;;;;;;;5080280;23;20612;-55
2023/07/25 12:34:42;;;;;;;2.27;1.20;;;;;;;;;;5032524;28;20478;-55
2023/07/25 12:37:09;;;;;;;3.13;1.10;;;;;;;;;;5029383;28;20557;-56
2023/07/25 12:39:36;;;;;;;2.00;1.00;;;;;;;;;;5028344;28;20602;-56
2023/07/25 12:42:04;;;;;;;2.10;1.10;;;;;;;;;;5030124;28;20497;-55
2023/07/25 12:44:31;;;;;;;2.07;0.90;;;;;;;;;;5031277;28;20671;-55
2023/07/25 12:46:58;;;;;;;2.10;0.73;;;;;;;;;;5033750;28;20950;-55
2023/07/25 12:49:28;;;;;;;2.20;1.20;;;;;;;;;;5031318;28;20469;-56
2023/07/25 12:51:55;;;;;;;2.47;1.07;;;;;;;;;;5031271;28;21203;-55
2023/07/25 12:54:22;;;;;;;2.10;1.00;;;;;;;;;;5031625;28;20443;-56
2023/07/25 12:56:49;;;;;;;2.20;0.60;;;;;;;;;;5031907;28;20510;-56
2023/07/25 12:59:16;;;;;;;2.10;0.80;;;;;;;;;;5031401;28;20870;-55
2023/07/25 13:01:44;;;;;;;2.00;0.83;;;;;;;;;;5031687;28;20545;-56
2023/07/25 13:04:11;;;;;;;1.53;0.60;;;;;;;;;;5031789;28;20492;-55
2023/07/25 13:06:40;;;;;;;2.27;1.10;;;;;;;;;;5031176;28;20438;-56
2023/07/25 13:09:07;;;;;;;2.13;0.80;;;;;;;;;;5031169;28;20451;-56
2023/07/25 13:11:34;;;;;;;3.33;1.03;;;;;;;;;;5030198;28;20490;-56
2023/07/25 13:14:01;;;;;;;3.57;0.60;;;;;;;;;;5031813;28;20474;-56
2023/07/25 13:16:29;;;;;;;2.53;0.80;;;;;;;;;;5031830;28;20514;-54
2023/07/25 13:18:56;;;;;;;1.70;0.70;;;;;;;;;;5025225;28;20457;-55
2023/07/25 13:21:23;;;;;;;2.90;1.10;;;;;;;;;;5029835;28;20881;-56
2023/07/25 13:23:52;;;;;;;2.10;1.00;;;;;;;;;;5030969;28;20478;-56
2023/07/25 13:26:19;;;;;;;2.50;0.87;;;;;;;;;;5031473;28;20533;-56
2023/07/25 13:28:46;;;;;;;2.03;0.80;;;;;;;;;;5030961;28;20470;-56
2023/07/25 13:31:13;;;;;;;2.67;1.10;;;;;;;;;;5031096;28;20544;-55
2023/07/25 13:33:41;;;;;;;2.63;1.20;;;;;;;;;;5031478;28;20957;-55
2023/07/25 13:36:08;;;;;;;2.60;1.10;;;;;;;;;;5030249;28;20574;-56
2023/07/25 13:38:35;;;;;;;2.10;1.00;;;;;;;;;;5030952;28;20442;-55
2023/07/25 13:41:04;;;;;;;2.30;1.00;;;;;;;;;;5030966;28;20530;-55
2023/07/25 13:43:31;;;;;;;1.70;0.80;;;;;;;;;;5030464;28;20540;-54
2023/07/25 13:45:58;;;;;;;2.70;1.13;;;;;;;;;;5036268;28;20477;-55
2023/07/25 13:48:25;;;;;;;2.53;0.87;;;;;;;;;;5031090;28;20529;-55
2023/07/25 13:50:53;;;;;;;1.70;0.80;;;;;;;;;;5030647;28;20512;-54
2023/07/25 13:53:20;;;;;;;1.93;1.00;;;;;;;;;;5030150;28;20473;-55
2023/07/25 13:55:47;;;;;;;2.20;0.93;;;;;;;;;;5030462;28;20569;-55
2023/07/25 13:58:16;;;;;;;2.47;1.07;;;;;;;;;;5030545;28;20533;-56
2023/07/25 14:00:43;;;;;;;2.10;1.00;;;;;;;;;;5030195;28;20446;-56
2023/07/25 14:03:11;;;;;;;2.17;1.00;;;;;;;;;;5030503;28;20561;-55
2023/07/25 14:05:38;;;;;;;2.00;0.97;;;;;;;;;;5030385;28;20973;-55
2023/07/25 14:08:07;;;;;;;2.47;1.07;;;;;;;;;;5030032;28;20942;-56
2023/07/25 14:10:34;;;;;;;1.87;0.80;;;;;;;;;;5030052;28;20961;-56
2023/07/25 14:13:01;;;;;;;3.07;1.20;;;;;;;;;;5029604;28;20554;-55
2023/07/25 14:15:31;;;;;;;1.90;1.07;;;;;;;;;;5021731;28;20514;-56
2023/07/25 14:17:58;;;;;;;1.93;0.90;;;;;;;;;;5029247;28;20904;-55
2023/07/25 14:20:26;;;;;;;1.80;0.60;;;;;;;;;;5030080;28;20485;-55
2023/07/25 14:22:53;;;;;;;2.13;1.00;;;;;;;;;;5030291;28;20462;-56
2023/07/25 14:25:20;;;;;;;1.80;0.80;;;;;;;;;;5029575;28;20438;-55
2023/07/25 14:27:48;;;;;;;2.57;1.10;;;;;;;;;;5029984;28;20500;-56
2023/07/25 14:30:16;;;;;;;2.77;0.73;;;;;;;;;;5029866;28;20446;-55
2023/07/25 14:32:44;;;;;;;2.50;1.23;;;;;;;;;;5030059;28;20565;-56
2023/07/25 14:35:11;;;;;;;2.03;1.00;;;;;;;;;;5010634;28;20505;-55
2023/07/25 14:37:40;;;;;;;2.37;1.10;;;;;;;;;;5010005;28;20451;-55
2023/07/25 14:40:08;;;;;;;1.80;0.90;;;;;;;;;;5016963;28;20941;-55
2023/07/25 14:42:35;;;;;;;2.00;1.40;;;;;;;;;;5028984;28;20634;-57
2023/07/25 14:45:02;;;;;;;4.13;1.00;;;;;;;;;;5029835;28;20482;-57
2023/07/25 14:47:30;;;;;;;1.87;0.80;;;;;;;;;;5029828;28;20509;-56
2023/07/25 14:49:59;;;;;;;2.07;0.90;;;;;;;;;;5030072;28;20504;-56